Weather at Maxson Airfield

Public forecast

Using degrees Fahrenheit for public forecast. Weather courtesy of forecast.io.

Closest aviation weather report (METAR) to Maxson Airfield

Closest report is Wheeler Sack Army Air Field, 17.3 nm (31.9 km) SSE. Retrieved 2021/01/20 01:44 UTC (15 minutes ago):

KGTB 200144Z AUTO 27007G16KT 10SM FEW006 FEW011 SCT016 OVC024 M02/M05 A2992 RMK AO2 SNE26UPB26E33SNB33E44 CIG 018V024 OVC V BKN SLP143

Closest aviation forecast (TAF) to Maxson Airfield

Closest forecast is Wheeler Sack Army Air Field, 17.3 nm (31.9 km) SSE. Retrieved 2021-01-20 01:22 UTC (37 minutes ago):

TAF KGTB 200100Z 2001/2107 25009KT 9000 -SN BKN020 620204 QNH2991INS TEMPO 2001/2004 BKN010 610104 BECMG 2003/2004 26006KT 8000 -SN BKN025 620253 QNH2985INS BECMG 2017/2018 29010G15KT 9999 NSW BKN050 620503 520053 QNH2993INS BECMG 2022/2023 VRB06KT 9999 SCT050 QNH2986INS TXM02/2001Z TNM20/2100Z